createdAt,value
2018-12-01T00:01:47.890Z,98135.43
2018-12-01T00:04:17.884Z,98137.12
2018-12-01T00:06:47.947Z,98136.64
2018-12-01T00:09:17.941Z,98125.06
2018-12-01T00:11:48.035Z,98135.80
2018-12-01T00:14:18.044Z,98141.77
2018-12-01T00:16:48.164Z,98136.19
2018-12-01T00:19:18.170Z,98137.48
2018-12-01T00:21:48.338Z,98139.61
2018-12-01T00:24:18.356Z,98137.91
2018-12-01T00:26:48.691Z,98140.48
2018-12-01T00:29:18.730Z,98128.91
2018-12-01T00:31:48.822Z,98134.13
2018-12-01T00:34:18.868Z,98136.27
2018-12-01T00:36:48.930Z,98136.64
2018-12-01T00:39:18.969Z,98128.91
2018-12-01T00:41:49.046Z,98123.76
2018-12-01T00:44:19.120Z,98134.90
2018-12-01T00:46:49.226Z,98132.33
2018-12-01T00:49:19.230Z,98132.67
2018-12-01T00:51:49.347Z,98130.91
2018-12-01T00:54:19.358Z,98142.89
2018-12-01T00:56:49.458Z,98142.02
2018-12-01T00:59:19.472Z,98142.45
2018-12-01T01:01:49.553Z,98151.40
2018-12-01T01:04:19.631Z,98154.38
2018-12-01T01:06:49.748Z,98149.64
2018-12-01T01:09:19.791Z,98154.38
2018-12-01T01:11:49.905Z,98153.08
2018-12-01T01:14:19.900Z,98150.08
2018-12-01T01:16:49.955Z,98150.03
2018-12-01T01:19:19.977Z,98156.87
2018-12-01T01:21:50.021Z,98156.44
2018-12-01T01:24:20.080Z,98152.56
2018-12-01T01:26:50.107Z,98146.98
2018-12-01T01:29:20.176Z,98153.80
2018-12-01T01:31:50.205Z,98149.49
2018-12-01T01:34:20.215Z,98146.89
2018-12-01T01:36:50.262Z,98153.32
2018-12-01T01:39:20.349Z,98156.70
2018-12-01T01:41:50.397Z,98156.26
2018-12-01T01:44:20.460Z,98156.23
2018-12-01T01:46:50.551Z,98149.75
2018-12-01T01:49:20.553Z,98150.16
2018-12-01T01:51:50.565Z,98149.72
2018-12-01T01:54:20.562Z,98152.66
2018-12-01T01:56:50.658Z,98152.66
2018-12-01T01:59:20.723Z,98156.52
2018-12-01T02:01:50.831Z,98152.22
2018-12-01T02:04:21.021Z,98162.91
2018-12-01T02:06:51.047Z,98154.70
2018-12-01T02:09:21.125Z,98158.13
2018-12-01T02:11:51.146Z,98159.38
2018-12-01T02:14:21.172Z,98158.93
2018-12-01T02:16:51.219Z,98160.58
2018-12-01T02:19:21.200Z,98154.13
2018-12-01T02:21:51.246Z,98154.99
2018-12-01T02:24:21.261Z,98150.28
2018-12-01T02:26:51.279Z,98155.01
2018-12-01T02:29:21.327Z,98152.02
2018-12-01T02:31:51.390Z,98161.84
2018-12-01T02:34:21.439Z,98160.48
2018-12-01T02:36:51.519Z,98156.18
2018-12-01T02:39:21.585Z,98157.02
2018-12-01T02:41:51.604Z,98159.09
2018-12-01T02:45:31.244Z,98157.33
2018-12-01T02:48:01.297Z,98155.56
2018-12-01T02:50:31.289Z,98154.66
2018-12-01T02:53:01.925Z,98153.80
2018-12-01T02:55:31.983Z,98160.59
2018-12-01T02:58:02.003Z,98154.14
2018-12-01T03:00:32.117Z,98158.85
2018-12-01T03:03:02.125Z,98158.84
2018-12-01T03:05:32.210Z,98159.70
2018-12-01T03:08:02.280Z,98159.27
2018-12-01T03:10:32.272Z,98162.69
2018-12-01T03:13:02.364Z,98164.77
2018-12-01T03:15:32.423Z,98172.47
2018-12-01T03:18:02.487Z,98172.82
2018-12-01T03:20:32.509Z,98171.09
2018-12-01T03:23:02.616Z,98173.66
2018-12-01T03:25:32.690Z,98175.37
2018-12-01T03:28:02.719Z,98183.08
2018-12-01T03:30:32.781Z,98182.15
2018-12-01T03:33:02.826Z,98177.39
2018-12-01T03:35:33.143Z,98179.12
2018-12-01T03:38:03.196Z,98187.19
2018-12-01T03:40:38.291Z,98188.84
2018-12-01T03:43:08.319Z,98187.49
2018-12-01T03:45:38.401Z,98191.41
2018-12-01T03:48:08.478Z,98196.90
2018-12-01T03:50:38.509Z,98198.23
2018-12-01T03:53:09.472Z,98196.50
2018-12-01T03:55:39.507Z,98204.66
2018-12-01T03:58:09.546Z,98198.23
2018-12-01T04:00:39.535Z,98200.78
2018-12-01T04:03:09.572Z,98195.64
2018-12-01T04:05:39.599Z,98196.06
2018-12-01T04:08:09.690Z,98205.17
2018-12-01T04:10:39.629Z,98210.77
2018-12-01T04:13:09.660Z,98200.91
2018-12-01T04:15:39.653Z,98199.16
2018-12-01T04:18:09.698Z,98197.38
2018-12-01T04:20:39.649Z,98199.91
2018-12-01T04:23:09.787Z,98197.69
2018-12-01T04:25:39.846Z,98200.69
2018-12-01T04:28:09.880Z,98198.52
2018-12-01T04:30:39.847Z,98198.51
2018-12-01T04:33:09.968Z,98193.34
2018-12-01T04:35:39.995Z,98195.07
2018-12-01T04:38:10.058Z,98193.77
2018-12-01T04:40:40.056Z,98193.38
2018-12-01T04:43:10.064Z,98189.95
2018-12-01T04:45:40.088Z,98195.17
2018-12-01T04:48:10.176Z,98202.89
2018-12-01T04:50:40.208Z,98212.29
2018-12-01T04:53:10.297Z,98204.14
2018-12-01T04:55:40.318Z,98212.77
2018-12-01T04:58:10.369Z,98213.64
2018-12-01T05:00:40.443Z,98209.36
2018-12-01T05:03:10.514Z,98212.79
2018-12-01T05:05:40.582Z,98211.52
2018-12-01T05:08:10.638Z,98212.36
2018-12-01T05:10:40.640Z,98210.55
2018-12-01T05:13:10.676Z,98217.81
2018-12-01T05:15:40.682Z,98216.00
2018-12-01T05:18:10.737Z,98221.93
2018-12-01T05:20:40.781Z,98220.20
2018-12-01T05:23:10.868Z,98224.50
2018-12-01T05:25:40.898Z,98222.35
2018-12-01T05:28:11.171Z,98224.16
2018-12-01T05:30:41.239Z,98224.61
2018-12-01T05:33:11.532Z,98231.06
2018-12-01T05:35:41.577Z,98225.45
2018-12-01T05:38:11.589Z,98219.00
2018-12-01T05:40:41.644Z,98221.18
2018-12-01T05:43:11.694Z,98232.35
2018-12-01T05:45:41.745Z,98234.94
2018-12-01T05:48:11.824Z,98236.66
2018-12-01T05:50:41.839Z,98231.94
2018-12-01T05:53:11.898Z,98238.81
2018-12-01T05:55:41.916Z,98239.25
2018-12-01T05:58:11.991Z,98242.69
2018-12-01T06:00:41.977Z,98249.53
2018-12-01T06:03:12.038Z,98251.68
2018-12-01T06:05:42.087Z,98252.13
2018-12-01T06:08:12.124Z,98244.46
2018-12-01T06:10:42.165Z,98242.75
2018-12-01T06:13:12.213Z,98240.63
2018-12-01T06:15:42.248Z,98234.63
2018-12-01T06:18:12.325Z,98233.78
2018-12-01T06:20:42.330Z,98235.52
2018-12-01T06:23:12.490Z,98241.95
2018-12-01T06:25:42.660Z,98241.09
2018-12-01T06:28:12.710Z,98247.95
2018-12-01T06:30:42.748Z,98248.81
2018-12-01T06:33:12.904Z,98257.41
2018-12-01T06:35:43.077Z,98255.65
2018-12-01T06:38:13.210Z,98260.20
2018-12-01T06:40:43.257Z,98263.20
2018-12-01T06:43:13.325Z,98270.94
2018-12-01T06:45:43.572Z,98270.09
2018-12-01T06:48:13.701Z,98275.67
2018-12-01T06:50:44.046Z,98279.95
2018-12-01T06:53:14.154Z,98282.52
2018-12-01T06:55:44.274Z,98279.51
2018-12-01T06:58:14.471Z,98278.64
2018-12-01T07:00:44.724Z,98282.42
2018-12-01T07:03:16.451Z,98284.56
2018-12-01T07:05:47.053Z,98289.33
2018-12-01T07:08:17.123Z,98284.25
2018-12-01T07:10:47.526Z,98290.70
2018-12-01T07:13:17.826Z,98289.38
2018-12-01T07:15:47.971Z,98290.61
2018-12-01T07:18:29.235Z,98297.91
2018-12-01T07:20:59.274Z,98306.93
2018-12-01T07:23:29.350Z,98309.48
2018-12-01T07:25:59.341Z,98324.02
2018-12-01T07:28:29.427Z,98324.34
2018-12-01T07:30:59.471Z,98322.17
2018-12-01T07:33:29.539Z,98329.11
2018-12-01T07:35:59.565Z,98330.79
2018-12-01T07:38:29.565Z,98338.09
2018-12-01T07:40:59.567Z,98330.70
2018-12-01T07:43:29.634Z,98334.14
2018-12-01T07:45:59.645Z,98335.88
2018-12-01T07:48:29.705Z,98342.34
2018-12-01T07:50:59.785Z,98332.42
2018-12-01T07:53:29.805Z,98330.77
2018-12-01T07:55:59.882Z,98332.41
2018-12-01T07:58:29.869Z,98334.08
2018-12-01T08:01:00.245Z,98332.27
2018-12-01T08:03:30.296Z,98333.53
2018-12-01T08:06:00.303Z,98321.82
2018-12-01T08:08:30.548Z,98322.13
2018-12-01T08:11:00.540Z,98321.55
2018-12-01T08:13:30.586Z,98323.55
2018-12-01T08:16:00.602Z,98321.36
2018-12-01T08:18:31.135Z,98329.42
2018-12-01T08:21:01.094Z,98326.27
2018-12-01T08:23:31.146Z,98322.80
2018-12-01T08:26:01.202Z,98321.48
2018-12-01T08:28:31.808Z,98324.09
2018-12-01T08:31:02.090Z,98323.66
2018-12-01T08:33:32.093Z,98328.63
2018-12-01T08:36:02.214Z,98331.05
2018-12-01T08:38:32.425Z,98321.84
2018-12-01T08:41:02.665Z,98323.03
2018-12-01T08:43:32.816Z,98315.13
2018-12-01T08:46:02.867Z,98312.88
2018-12-01T08:48:32.943Z,98311.56
2018-12-01T08:51:02.953Z,98302.20
2018-12-01T08:53:33.821Z,98298.86
2018-12-01T08:56:03.857Z,98303.16
2018-12-01T08:58:33.942Z,98313.94
2018-12-01T09:01:03.964Z,98312.98
2018-12-01T09:03:34.006Z,98318.96
2018-12-01T09:06:04.032Z,98324.30
2018-12-01T09:08:34.107Z,98321.58
2018-12-01T09:11:04.129Z,98317.21
2018-12-01T09:13:34.303Z,98319.80
2018-12-01T09:16:04.396Z,98312.61
2018-12-01T09:18:34.505Z,98318.03
2018-12-01T09:21:04.780Z,98310.36
2018-12-01T09:23:34.769Z,98296.98
2018-12-01T09:26:04.895Z,98291.20
2018-12-01T09:28:34.901Z,98291.02
2018-12-01T09:31:04.984Z,98287.38
2018-12-01T09:33:34.974Z,98284.95
2018-12-01T09:36:05.039Z,98283.52
2018-12-01T09:38:35.079Z,98280.31
2018-12-01T09:41:05.197Z,98278.98
2018-12-01T09:43:35.218Z,98274.19
2018-12-01T09:46:05.285Z,98277.73
2018-12-01T09:48:35.330Z,98277.55
2018-12-01T09:51:06.147Z,98280.49
2018-12-01T09:53:36.169Z,98282.59
2018-12-01T09:56:06.219Z,98281.03
2018-12-01T09:58:36.353Z,98284.73
2018-12-01T10:01:06.437Z,98281.84
2018-12-01T10:03:36.459Z,98284.13
2018-12-01T10:06:06.555Z,98279.41
2018-12-01T10:08:36.669Z,98275.16
2018-12-01T10:11:06.869Z,98274.02
2018-12-01T10:13:36.915Z,98269.27
2018-12-01T10:16:07.097Z,98273.98
2018-12-01T10:18:37.109Z,98278.52
2018-12-01T10:21:07.171Z,98270.42
2018-12-01T10:23:37.190Z,98267.77
2018-12-01T10:26:07.324Z,98273.53
2018-12-01T10:28:37.511Z,98271.55
2018-12-01T10:31:07.545Z,98269.66
2018-12-01T10:33:37.537Z,98279.51
2018-12-01T10:36:07.552Z,98274.15
2018-12-01T10:38:37.573Z,98267.83
2018-12-01T10:41:07.563Z,98260.20
2018-12-01T10:43:37.981Z,98249.73
2018-12-01T10:46:08.116Z,98252.25
2018-12-01T10:48:38.196Z,98251.25
2018-12-01T10:51:08.338Z,98254.33
2018-12-01T10:53:38.552Z,98238.94
2018-12-01T10:56:08.798Z,98242.08
2018-12-01T10:58:39.161Z,98245.73
2018-12-01T11:01:14.464Z,98225.47
2018-12-01T11:03:47.902Z,98232.61
2018-12-01T11:06:19.376Z,98225.98
2018-12-01T11:08:50.235Z,98226.47
2018-12-01T11:11:20.318Z,98221.88
2018-12-01T11:13:50.410Z,98210.48
2018-12-01T11:16:20.714Z,98218.09
2018-12-01T11:18:51.030Z,98218.14
2018-12-01T11:21:21.064Z,98213.14
2018-12-01T11:23:51.150Z,98208.13
2018-12-01T11:26:21.780Z,98205.73
2018-12-01T11:28:52.502Z,98209.48
2018-12-01T11:31:22.510Z,98213.92
2018-12-01T11:33:52.662Z,98216.87
2018-12-01T11:36:22.797Z,98214.25
2018-12-01T11:38:52.795Z,98209.86
2018-12-01T11:41:23.037Z,98206.16
2018-12-01T11:43:53.117Z,98210.73
2018-12-01T11:46:23.258Z,98205.59
2018-12-01T11:48:53.320Z,98210.80
2018-12-01T11:51:23.467Z,98205.11
2018-12-01T11:53:53.607Z,98205.81
2018-12-01T11:56:23.620Z,98196.63
2018-12-01T11:58:53.631Z,98198.00
2018-12-01T12:01:24.130Z,98200.03
2018-12-01T12:03:54.245Z,98191.52
2018-12-01T12:06:24.257Z,98184.56
2018-12-01T12:08:54.366Z,98185.09
2018-12-01T12:11:24.844Z,98171.13
2018-12-01T12:13:54.977Z,98171.19
2018-12-01T12:16:25.107Z,98167.02
2018-12-01T12:18:55.860Z,98164.63
2018-12-01T12:21:25.989Z,98162.42
2018-12-01T12:23:58.878Z,98154.64
2018-12-01T12:26:28.930Z,98162.18
2018-12-01T12:29:00.266Z,98159.49
2018-12-01T12:31:31.261Z,98163.27
2018-12-01T12:34:01.971Z,98169.79
2018-12-01T12:36:31.939Z,98164.86
2018-12-01T12:39:01.939Z,98174.25
2018-12-01T12:41:31.937Z,98177.13
2018-12-01T12:44:02.021Z,98182.16
2018-12-01T12:46:32.084Z,98186.95
2018-12-01T12:49:02.130Z,98191.91
2018-12-01T12:51:32.137Z,98193.00
2018-12-01T12:54:02.193Z,98191.50
2018-12-01T12:56:32.306Z,98186.36
2018-12-01T12:59:02.338Z,98178.94
2018-12-01T13:01:32.445Z,98173.41
2018-12-01T13:04:02.626Z,98160.92
2018-12-01T13:06:32.685Z,98159.25
2018-12-01T13:09:02.899Z,98161.84
2018-12-01T13:11:32.925Z,98152.45
2018-12-01T13:14:03.031Z,98149.49
2018-12-01T13:16:34.129Z,98148.50
2018-12-01T13:19:04.982Z,98137.00
2018-12-01T13:21:35.153Z,98133.69
2018-12-01T13:24:05.553Z,98136.13
2018-12-01T13:26:35.534Z,98134.21
2018-12-01T13:29:05.660Z,98126.23
2018-12-01T13:31:35.701Z,98129.34
2018-12-01T13:34:05.937Z,98125.41
2018-12-01T13:36:36.001Z,98123.51
2018-12-01T13:39:09.371Z,98130.66
2018-12-01T13:41:39.437Z,98126.69
2018-12-01T13:44:09.545Z,98123.22
2018-12-01T13:46:40.215Z,98136.25
2018-12-01T13:49:10.326Z,98129.23
2018-12-01T13:51:40.343Z,98122.66
2018-12-01T13:54:10.397Z,98125.59
2018-12-01T13:56:40.532Z,98129.64
2018-12-01T13:59:10.583Z,98130.83
2018-12-01T14:01:40.628Z,98131.67
2018-12-01T14:04:10.662Z,98131.42
2018-12-01T14:06:40.622Z,98130.23
2018-12-01T14:09:10.715Z,98130.27
2018-12-01T14:11:40.827Z,98131.90
2018-12-01T14:14:10.862Z,98126.02
2018-12-01T14:16:40.894Z,98130.42
2018-12-01T14:19:10.953Z,98136.20
2018-12-01T14:21:40.958Z,98139.06
2018-12-01T14:24:11.052Z,98141.63
2018-12-01T14:26:41.234Z,98136.52
2018-12-01T14:29:11.710Z,98132.80
2018-12-01T14:31:41.751Z,98140.28
2018-12-01T14:34:11.850Z,98139.70
2018-12-01T14:36:42.048Z,98147.11
2018-12-01T14:39:12.207Z,98141.04
2018-12-01T14:41:42.392Z,98146.54
2018-12-01T14:44:12.649Z,98148.21
2018-12-01T14:46:42.752Z,98143.27
2018-12-01T14:49:12.834Z,98148.30
2018-12-01T14:51:42.901Z,98144.19
2018-12-01T14:54:13.024Z,98146.70
2018-12-01T14:56:43.200Z,98150.01
2018-12-01T14:59:13.258Z,98146.75
2018-12-01T15:01:45.029Z,98147.02
2018-12-01T15:04:15.175Z,98143.40
2018-12-01T15:06:45.222Z,98152.70
2018-12-01T15:09:15.301Z,98150.33
2018-12-01T15:11:45.382Z,98145.84
2018-12-01T15:14:15.452Z,98161.23
2018-12-01T15:16:45.521Z,98151.49
2018-12-01T15:19:15.587Z,98149.96
2018-12-01T15:21:46.008Z,98150.98
2018-12-01T15:24:16.295Z,98149.05
2018-12-01T15:26:46.346Z,98144.52
2018-12-01T15:29:16.526Z,98149.93
2018-12-01T15:31:46.761Z,98158.00
2018-12-01T15:34:16.957Z,98162.01
2018-12-01T15:36:47.145Z,98160.02
2018-12-01T15:39:27.509Z,98159.73
2018-12-01T15:41:57.662Z,98162.17
2018-12-01T15:44:27.867Z,98152.45
2018-12-01T15:46:57.961Z,98147.39
2018-12-01T15:49:28.230Z,98141.91
2018-12-01T15:51:58.373Z,98147.70
2018-12-01T15:54:28.488Z,98145.14
2018-12-01T15:56:58.633Z,98145.70
2018-12-01T15:59:28.847Z,98138.83
2018-12-01T16:01:59.002Z,98135.38
2018-12-01T16:04:29.053Z,98140.17
2018-12-01T16:06:59.096Z,98136.86
2018-12-01T16:09:29.206Z,98149.73
2018-12-01T16:11:59.249Z,98144.50
2018-12-01T16:14:29.394Z,98147.46
2018-12-01T16:16:59.452Z,98144.41
2018-12-01T16:19:29.466Z,98146.61
2018-12-01T16:21:59.612Z,98143.97
2018-12-01T16:24:30.150Z,98142.61
2018-12-01T16:27:01.454Z,98137.85
2018-12-01T16:29:31.564Z,98135.65
2018-12-01T16:32:01.602Z,98128.27
2018-12-01T16:34:31.938Z,98128.68
2018-12-01T16:37:02.039Z,98125.69
2018-12-01T16:39:32.143Z,98129.59
2018-12-01T16:42:07.274Z,98142.09
2018-12-01T16:44:37.439Z,98137.35
2018-12-01T16:47:07.500Z,98143.41
2018-12-01T16:49:37.680Z,98144.31
2018-12-01T16:52:07.801Z,98138.70
2018-12-01T16:54:37.819Z,98139.59
2018-12-01T16:57:07.924Z,98133.19
2018-12-01T16:59:37.977Z,98132.33
2018-12-01T17:02:08.019Z,98139.27
2018-12-01T17:04:38.200Z,98135.86
2018-12-01T17:07:08.228Z,98133.80
2018-12-01T17:09:38.506Z,98141.64
2018-12-01T17:12:08.592Z,98129.30
2018-12-01T17:14:38.713Z,98128.92
2018-12-01T17:17:09.199Z,98121.25
2018-12-01T17:19:40.466Z,98124.77
2018-12-01T17:22:10.742Z,98123.57
2018-12-01T17:24:40.806Z,98109.77
2018-12-01T17:27:10.828Z,98114.50
2018-12-01T17:29:40.896Z,98103.33
2018-12-01T17:32:10.986Z,98103.69
2018-12-01T17:34:41.124Z,98101.89
2018-12-01T17:37:11.206Z,98101.33
2018-12-01T17:39:41.338Z,98102.69
2018-12-01T17:42:11.466Z,98100.55
2018-12-01T17:44:41.562Z,98090.64
2018-12-01T17:47:11.651Z,98097.95
2018-12-01T17:49:41.863Z,98088.03
2018-12-01T17:52:11.937Z,98095.78
2018-12-01T17:54:42.311Z,98104.77
2018-12-01T17:57:12.445Z,98100.83
2018-12-01T17:59:42.542Z,98099.57
2018-12-01T18:02:12.584Z,98096.13
2018-12-01T18:04:42.692Z,98095.28
2018-12-01T18:07:12.880Z,98098.75
2018-12-01T18:09:43.136Z,98094.49
2018-12-01T18:12:13.261Z,98100.48
2018-12-01T18:14:44.721Z,98104.74
2018-12-01T18:17:15.222Z,98092.23
2018-12-01T18:19:45.506Z,98091.34
2018-12-01T18:22:15.711Z,98093.93
2018-12-01T18:24:45.756Z,98087.87
2018-12-01T18:27:16.139Z,98084.44
2018-12-01T18:29:46.474Z,98085.33
2018-12-01T18:32:16.617Z,98080.21
2018-12-01T18:34:46.718Z,98087.18
2018-12-01T18:37:16.828Z,98086.88
2018-12-01T18:39:47.010Z,98080.98
2018-12-01T18:42:17.129Z,98077.22
2018-12-01T18:44:47.210Z,98075.16
2018-12-01T18:47:17.460Z,98077.39
2018-12-01T18:49:47.720Z,98071.43
2018-12-01T18:52:17.800Z,98067.58
2018-12-01T18:54:47.882Z,98065.87
2018-12-01T18:57:17.904Z,98062.41
2018-12-01T18:59:48.101Z,98060.71
2018-12-01T19:02:18.477Z,98059.50
2018-12-01T19:04:49.240Z,98055.25
2018-12-01T19:07:21.485Z,98058.83
2018-12-01T19:09:51.555Z,98052.02
2018-12-01T19:12:22.262Z,98047.67
2018-12-01T19:14:54.004Z,98045.99
2018-12-01T19:17:26.262Z,98045.64
2018-12-01T19:19:59.114Z,98045.64
2018-12-01T19:22:29.272Z,98033.58
2018-12-01T19:25:01.080Z,98032.31
2018-12-01T19:27:30.152Z,98029.34
2018-12-01T19:30:05.060Z,98030.17
2018-12-01T19:32:30.410Z,98026.27
2018-12-01T19:35:00.563Z,98028.34
2018-12-01T19:37:32.697Z,98028.32
2018-12-01T19:40:04.671Z,98027.50
2018-12-01T19:42:34.733Z,98020.74
2018-12-01T19:45:06.655Z,98022.15
2018-12-01T19:47:36.678Z,98015.42
2018-12-01T19:50:17.813Z,98018.61
2018-12-01T19:52:49.895Z,98019.98
2018-12-01T19:55:23.631Z,98019.70
2018-12-01T19:57:54.420Z,98018.03
2018-12-01T20:00:26.698Z,98027.48
2018-12-01T20:02:58.719Z,98020.51
2018-12-01T20:05:28.773Z,98020.89
2018-12-01T20:07:58.857Z,98016.98
2018-12-01T20:14:09.655Z,98032.56
2018-12-01T20:16:44.969Z,98033.30
2018-12-01T20:19:15.055Z,98027.23
2018-12-01T20:21:45.133Z,98031.00
2018-12-01T20:24:15.601Z,98024.98
2018-12-01T20:26:45.745Z,98017.63
2018-12-01T20:29:15.844Z,98014.19
2018-12-01T20:31:45.878Z,98020.64
2018-12-01T20:34:16.351Z,98019.77
2018-12-01T20:36:50.324Z,98016.72
2018-12-01T20:39:23.645Z,98012.84
2018-12-01T20:41:53.753Z,98010.72
2018-12-01T20:44:23.786Z,97998.72
2018-12-01T20:46:53.900Z,97997.95
2018-12-01T20:49:23.981Z,97990.27
2018-12-01T20:51:54.045Z,97988.17
2018-12-01T20:54:44.851Z,97986.14
2018-12-01T20:57:21.360Z,97981.53
2018-12-01T20:59:51.447Z,97984.22
2018-12-01T21:02:22.150Z,97992.53
2018-12-01T21:04:52.248Z,97986.98
2018-12-01T21:07:22.263Z,97990.06
2018-12-01T21:09:52.809Z,97985.37
2018-12-01T21:12:22.920Z,97982.76
2018-12-01T21:14:53.016Z,97981.50
2018-12-01T21:17:23.090Z,97971.64
2018-12-01T21:19:53.210Z,97967.47
2018-12-01T21:22:23.265Z,97962.00
2018-12-01T21:24:53.424Z,97958.20
2018-12-01T21:27:23.494Z,97954.33
2018-12-01T21:29:54.052Z,97947.01
2018-12-01T21:32:24.014Z,97944.45
2018-12-01T21:34:54.035Z,97934.59
2018-12-01T21:37:24.210Z,97935.09
2018-12-01T21:39:54.318Z,97934.27
2018-12-01T21:42:24.405Z,97938.62
2018-12-01T21:44:54.759Z,97934.01
2018-12-01T21:47:24.834Z,97930.16
2018-12-01T21:49:54.860Z,97932.44
2018-12-01T21:52:24.876Z,97929.91
2018-12-01T21:54:54.900Z,97927.77
2018-12-01T21:57:24.960Z,97928.56
2018-12-01T21:59:55.000Z,97926.42
2018-12-01T22:02:25.045Z,97939.73
2018-12-01T22:04:55.105Z,97936.35
2018-12-01T22:07:25.186Z,97941.46
2018-12-01T22:09:55.151Z,97940.15
2018-12-01T22:12:25.213Z,97931.14
2018-12-01T22:14:55.248Z,97929.44
2018-12-01T22:17:25.326Z,97922.53
2018-12-01T22:19:55.360Z,97916.98
2018-12-01T22:22:25.430Z,97916.11
2018-12-01T22:24:55.479Z,97916.42
2018-12-01T22:27:25.583Z,97912.94
2018-12-01T22:29:55.622Z,97909.45
2018-12-01T22:32:25.865Z,97906.02
2018-12-01T22:34:56.342Z,97906.95
2018-12-01T22:37:26.410Z,97908.78
2018-12-01T22:39:56.640Z,97909.38
2018-12-01T22:42:26.741Z,97914.30
2018-12-01T22:44:56.845Z,97909.27
2018-12-01T22:47:26.886Z,97901.09
2018-12-01T22:49:57.271Z,97900.22
2018-12-01T22:52:27.316Z,97895.50
2018-12-01T22:54:57.368Z,97902.00
2018-12-01T22:57:27.481Z,97899.94
2018-12-01T22:59:57.528Z,97906.33
2018-12-01T23:02:27.754Z,97897.36
2018-12-01T23:04:57.840Z,97897.38
2018-12-01T23:07:28.254Z,97878.53
2018-12-01T23:09:58.252Z,97878.08
2018-12-01T23:12:28.339Z,97882.42
2018-12-01T23:14:58.376Z,97876.47
2018-12-01T23:17:28.517Z,97875.63
2018-12-01T23:19:58.517Z,97873.81
2018-12-01T23:22:28.547Z,97861.71
2018-12-01T23:24:58.903Z,97850.39
2018-12-01T23:27:29.006Z,97837.83
2018-12-01T23:29:59.048Z,97837.34
2018-12-01T23:32:29.118Z,97848.38
2018-12-01T23:34:59.161Z,97841.44
2018-12-01T23:37:29.200Z,97840.03
2018-12-01T23:39:59.234Z,97830.95
2018-12-01T23:42:29.313Z,97825.71
2018-12-01T23:44:59.329Z,97814.52
2018-12-01T23:47:29.641Z,97811.53
2018-12-01T23:49:59.642Z,97806.34
2018-12-01T23:52:29.669Z,97802.03
2018-12-01T23:54:59.715Z,97793.39
2018-12-01T23:57:29.788Z,97786.06
2018-12-01T23:59:59.811Z,97784.69
